Time;durP1;ratioP1;P1;durP2;ratioP2;P2;SDS_P1;SDS_P2;PMS_P1;PMS_P2;Temp;Humidity;BMP_temperature;BMP_pressure;BME280_temperature;BME280_humidity;BME280_pressure;Samples;Min_cycle;Max_cycle;Signal;HPM_P1;HPM_P2
2023/08/03 00:00:13;;;;;;;8.20;7.40;;;;;;;22.28;76.58;64308.44;5088566;28;20200;-77
2023/08/03 00:02:41;;;;;;;7.65;6.95;;;;;;;22.30;77.19;64313.13;5069110;28;20207;-77
2023/08/03 00:05:08;;;;;;;7.53;6.93;;;;;;;22.31;77.39;64309.50;5073629;28;20611;-77
2023/08/03 00:07:35;;;;;;;7.78;7.18;;;;;;;22.24;77.15;64299.59;5085076;28;20509;-77
2023/08/03 00:10:03;;;;;;;7.72;7.05;;;;;;;22.20;77.50;64295.41;5081995;28;20298;-78
2023/08/03 00:12:30;;;;;;;7.68;6.88;;;;;;;22.09;79.60;64286.00;5083449;28;20382;-79
2023/08/03 00:14:59;;;;;;;7.47;6.85;;;;;;;22.05;79.23;64287.53;5072539;28;20200;-75
2023/08/03 00:17:26;;;;;;;7.10;6.50;;;;;;;21.97;79.40;64276.03;5084639;28;20196;-75
2023/08/03 00:19:53;;;;;;;8.13;7.38;;;;;;;21.93;79.66;64269.78;5084234;28;20216;-77
2023/08/03 00:22:20;;;;;;;7.88;7.18;;;;;;;21.95;80.41;64273.94;5078571;28;20204;-75
2023/08/03 00:24:47;;;;;;;7.43;6.85;;;;;;;21.94;80.53;64270.31;5084932;28;20223;-77
2023/08/03 00:27:14;;;;;;;7.55;6.95;;;;;;;21.89;80.99;64270.78;5087829;28;20250;-76
2023/08/03 00:29:41;;;;;;;9.50;7.35;;;;;;;21.84;81.27;64262.44;5087137;28;20556;-76
2023/08/03 00:32:10;;;;;;;7.28;6.57;;;;;;;21.89;81.64;64265.09;5083106;28;20200;-76
2023/08/03 00:34:37;;;;;;;8.38;7.68;;;;;;;21.88;81.59;64266.63;5088473;28;20286;-76
2023/08/03 00:37:05;;;;;;;8.38;7.47;;;;;;;21.87;81.82;64263.50;5085669;28;20208;-76
2023/08/03 00:39:32;;;;;;;9.00;7.55;;;;;;;21.81;83.36;64254.66;5087982;28;20216;-76
2023/08/03 00:41:59;;;;;;;7.72;7.13;;;;;;;21.76;84.27;64255.13;5086435;28;20460;-75
2023/08/03 00:44:26;;;;;;;8.60;7.70;;;;;;;21.75;84.14;64254.09;5084408;28;20220;-76
2023/08/03 00:46:53;;;;;;;8.38;7.60;;;;;;;21.72;85.50;64250.41;5088341;28;20375;-76
2023/08/03 00:49:21;;;;;;;8.38;7.68;;;;;;;21.76;84.91;64255.13;5082953;28;20281;-76
2023/08/03 00:51:48;;;;;;;10.93;7.82;;;;;;;21.71;85.98;64246.78;5084763;28;20406;-76
2023/08/03 00:54:15;;;;;;;9.07;8.27;;;;;;;21.66;86.34;64242.06;5082109;28;20543;-75
2023/08/03 00:56:42;;;;;;;8.57;7.78;;;;;;;21.63;86.46;64243.59;5088969;28;20433;-77
2023/08/03 00:59:11;;;;;;;7.78;7.07;;;;;;;21.64;87.05;64244.66;5087720;28;20437;-76
2023/08/03 01:01:38;;;;;;;9.07;7.70;;;;;;;21.62;87.41;64240.47;5086981;28;20520;-75
2023/08/03 01:04:05;;;;;;;8.52;7.82;;;;;;;21.58;87.84;64236.31;5085761;28;20254;-76
2023/08/03 01:06:35;;;;;;;9.25;8.35;;;;;;;21.53;88.29;64225.38;5086825;28;20406;-76
2023/08/03 01:09:03;;;;;;;8.00;7.40;;;;;;;21.54;89.13;64229.53;5087982;28;20270;-76
2023/08/03 01:11:30;;;;;;;8.63;7.93;;;;;;;21.49;89.21;64228.97;5084944;28;20227;-74
2023/08/03 01:13:58;;;;;;;9.38;8.40;;;;;;;21.48;89.24;64225.88;5083213;28;20279;-76
2023/08/03 01:16:26;;;;;;;9.32;7.78;;;;;;;21.49;89.67;64226.38;5088846;28;20389;-76
2023/08/03 01:18:53;;;;;;;9.90;8.50;;;;;;;21.53;89.95;64233.69;5082316;28;20460;-76
2023/08/03 01:21:21;;;;;;;8.32;7.55;;;;;;;21.53;89.24;64230.56;5087472;28;20215;-76
2023/08/03 01:23:50;;;;;;;9.73;8.82;;;;;;;21.54;90.03;64237.31;5084226;28;20620;-75
2023/08/03 01:26:17;;;;;;;7.88;7.28;;;;;;;21.54;89.83;64237.31;5087376;28;20219;-76
2023/08/03 01:28:44;;;;;;;8.95;8.18;;;;;;;21.53;89.73;64227.97;5090826;28;20242;-74
2023/08/03 01:31:11;;;;;;;8.35;7.65;;;;;;;21.56;89.79;64231.09;5086141;28;20271;-75
2023/08/03 01:33:38;;;;;;;8.80;8.10;;;;;;;21.54;89.93;64226.94;5084104;28;20544;-76
2023/08/03 01:36:06;;;;;;;9.00;8.10;;;;;;;21.52;90.09;64230.03;5086200;28;20230;-76
2023/08/03 01:38:33;;;;;;;8.65;8.02;;;;;;;21.53;90.25;64227.97;5086132;28;20223;-77
2023/08/03 01:41:01;;;;;;;9.38;8.15;;;;;;;21.50;91.66;64230.53;5081803;28;20276;-78
2023/08/03 01:43:28;;;;;;;8.88;8.13;;;;;;;21.47;91.83;64229.47;5087914;28;20222;-75
2023/08/03 01:45:55;;;;;;;8.80;7.97;;;;;;;21.48;92.04;64222.75;5086571;28;20262;-78
2023/08/03 01:48:22;;;;;;;8.93;8.18;;;;;;;21.48;92.05;64225.88;5087636;28;20220;-77
2023/08/03 01:50:49;;;;;;;8.60;7.80;;;;;;;21.46;92.91;64223.78;5076852;28;20483;-76
2023/08/03 01:53:17;;;;;;;9.63;8.75;;;;;;;21.48;93.10;64225.34;5083217;28;20220;-76
2023/08/03 01:55:46;;;;;;;9.35;8.48;;;;;;;21.44;92.70;64221.69;5086190;28;20214;-76
2023/08/03 01:58:15;;;;;;;8.93;8.15;;;;;;;21.39;93.60;64213.88;5086475;28;20269;-75
2023/08/03 02:00:42;;;;;;;10.23;9.25;;;;;;;21.34;94.19;64208.66;5090277;28;20192;-76
2023/08/03 02:03:10;;;;;;;9.18;8.32;;;;;;;21.34;93.71;64213.84;5087264;28;20450;-75
2023/08/03 02:05:37;;;;;;;9.73;8.95;;;;;;;21.34;94.46;64208.66;5082676;28;20231;-75
2023/08/03 02:08:04;;;;;;;9.05;8.35;;;;;;;21.35;94.44;64211.75;5087684;28;20280;-76
2023/08/03 02:10:31;;;;;;;8.38;7.68;;;;;;;21.32;94.75;64206.03;5084546;28;20424;-77
2023/08/03 02:12:58;;;;;;;10.25;9.02;;;;;;;21.31;94.99;64205.50;5084231;28;20220;-75
2023/08/03 02:15:26;;;;;;;9.45;8.68;;;;;;;21.33;94.80;64205.00;5088543;28;20244;-76
2023/08/03 02:17:52;;;;;;;10.75;9.77;;;;;;;21.32;95.52;64206.03;5083955;28;20272;-75
2023/08/03 02:20:20;;;;;;;9.95;9.05;;;;;;;21.30;95.89;64209.13;5083947;28;20257;-75
2023/08/03 02:22:48;;;;;;;9.68;8.45;;;;;;;21.31;95.82;64202.41;5081101;28;20192;-76
2023/08/03 02:25:16;;;;;;;10.18;9.25;;;;;;;21.22;96.63;64196.13;5085408;28;20441;-75
2023/08/03 02:27:43;;;;;;;10.50;9.05;;;;;;;21.21;96.55;64197.66;5086168;28;20192;-75
2023/08/03 02:30:11;;;;;;;10.40;8.60;;;;;;;21.23;96.13;64199.75;5089015;28;20512;-75
2023/08/03 02:32:40;;;;;;;9.15;8.35;;;;;;;21.20;96.45;64196.09;5071885;28;20215;-75
2023/08/03 02:35:08;;;;;;;10.00;9.20;;;;;;;21.18;97.11;64191.94;5085382;28;20237;-77
2023/08/03 02:37:35;;;;;;;9.00;8.10;;;;;;;21.16;97.19;64192.44;5086893;28;20203;-76
2023/08/03 02:40:02;;;;;;;9.25;8.48;;;;;;;21.14;97.45;64185.16;5084906;28;20220;-76
2023/08/03 02:42:29;;;;;;;9.15;8.40;;;;;;;21.11;97.93;64189.81;5075968;28;20204;-75
2023/08/03 02:44:56;;;;;;;9.23;8.50;;;;;;;21.12;97.96;64187.75;5088183;28;20287;-75
2023/08/03 02:47:22;;;;;;;8.93;8.23;;;;;;;21.12;97.71;64187.75;5085711;28;20246;-76
2023/08/03 02:49:51;;;;;;;8.93;8.07;;;;;;;21.15;97.70;64190.88;5082462;28;20240;-76
2023/08/03 02:52:18;;;;;;;8.98;8.20;;;;;;;21.14;97.91;64187.75;5083567;28;20309;-77
2023/08/03 02:54:45;;;;;;;9.20;8.40;;;;;;;21.14;98.16;64192.94;5086663;28;20454;-77
2023/08/03 02:57:12;;;;;;;9.10;8.35;;;;;;;21.17;98.09;64192.97;5085394;28;20259;-76
2023/08/03 02:59:39;;;;;;;9.50;8.70;;;;;;;21.18;97.92;64194.53;5086439;28;20215;-75
2023/08/03 03:02:06;;;;;;;8.60;7.80;;;;;;;21.18;97.95;64194.00;5086484;28;20203;-76
2023/08/03 03:04:33;;;;;;;9.45;8.55;;;;;;;21.15;98.26;64193.47;5083869;28;20245;-77
2023/08/03 03:07:02;;;;;;;10.07;9.13;;;;;;;21.12;97.84;64183.06;5085019;28;20398;-75
2023/08/03 03:09:29;;;;;;;9.65;8.85;;;;;;;21.09;98.64;64185.13;5083351;28;20216;-75
2023/08/03 03:11:56;;;;;;;10.95;9.25;;;;;;;21.06;99.08;64182.00;5081265;28;20246;-76
2023/08/03 03:14:23;;;;;;;9.82;8.93;;;;;;;21.06;98.95;64181.47;5089766;28;20249;-75
2023/08/03 03:16:50;;;;;;;9.63;8.85;;;;;;;21.06;99.56;64182.00;5078399;28;20266;-76
2023/08/03 03:19:17;;;;;;;9.02;8.23;;;;;;;21.02;100.00;64177.31;5068485;28;20246;-74
2023/08/03 03:21:44;;;;;;;12.75;8.73;;;;;;;21.00;100.00;64175.72;5085250;28;20443;-74
2023/08/03 03:24:12;;;;;;;11.30;10.20;;;;;;;21.00;100.00;64172.63;5085700;28;20379;-76
2023/08/03 03:26:39;;;;;;;9.60;8.90;;;;;;;20.98;100.00;64175.69;5084767;28;20247;-76
2023/08/03 03:29:07;;;;;;;9.73;8.80;;;;;;;20.96;100.00;64171.00;5085146;28;20528;-76
2023/08/03 03:31:34;;;;;;;10.40;9.52;;;;;;;20.95;100.00;64170.47;5085229;28;20192;-77
2023/08/03 03:34:01;;;;;;;10.23;9.25;;;;;;;21.00;100.00;64178.31;5084471;28;20427;-76
2023/08/03 03:36:28;;;;;;;9.88;8.88;;;;;;;20.98;100.00;64173.09;5082710;28;20496;-76
2023/08/03 03:38:55;;;;;;;10.52;9.48;;;;;;;20.98;100.00;64173.09;5078599;28;20466;-76
2023/08/03 03:41:24;;;;;;;9.95;9.13;;;;;;;21.00;100.00;64175.72;5087931;28;20203;-75
2023/08/03 03:43:51;;;;;;;9.80;9.00;;;;;;;21.02;100.00;64177.81;5082395;28;20240;-76
2023/08/03 03:46:18;;;;;;;10.95;9.75;;;;;;;21.09;100.00;64182.53;5083645;28;20273;-77
2023/08/03 03:48:45;;;;;;;10.23;9.32;;;;;;;21.09;100.00;64187.22;5082472;28;20314;-75
2023/08/03 03:51:11;;;;;;;9.20;8.43;;;;;;;21.13;100.00;64189.31;5084457;28;20210;-76
2023/08/03 03:53:39;;;;;;;10.40;9.50;;;;;;;21.15;100.00;64191.41;5082641;28;20223;-76
2023/08/03 03:56:06;;;;;;;9.80;8.95;;;;;;;21.15;100.00;64191.41;5085534;28;20219;-75
2023/08/03 03:58:34;;;;;;;10.23;9.32;;;;;;;21.20;100.00;64194.03;5077994;28;20250;-76
2023/08/03 04:01:01;;;;;;;9.80;8.80;;;;;;;21.31;100.00;64208.09;5068807;28;20243;-76
2023/08/03 04:03:28;;;;;;;10.48;9.48;;;;;;;21.31;100.00;64208.09;5074510;28;20361;-75
2023/08/03 04:05:55;;;;;;;10.52;9.55;;;;;;;21.36;100.00;64215.41;5082043;28;20542;-75
2023/08/03 04:08:22;;;;;;;10.20;9.25;;;;;;;21.41;100.00;64218.03;5082538;28;20225;-76
2023/08/03 04:10:49;;;;;;;9.63;8.75;;;;;;;21.46;100.00;64223.78;5079619;28;20469;-74
2023/08/03 04:13:16;;;;;;;9.75;8.85;;;;;;;21.57;100.00;64232.16;5080772;28;20228;-77
2023/08/03 04:15:44;;;;;;;10.10;9.20;;;;;;;21.65;100.00;64241.03;5084815;28;20251;-75
2023/08/03 04:18:11;;;;;;;9.40;8.60;;;;;;;21.72;100.00;64248.34;5084312;28;20219;-76
2023/08/03 04:20:38;;;;;;;10.20;9.27;;;;;;;21.79;99.97;64253.09;5083227;28;20210;-76
2023/08/03 04:23:05;;;;;;;9.90;8.90;;;;;;;21.88;100.00;64266.63;5085584;28;20458;-75
2023/08/03 04:25:32;;;;;;;10.73;9.68;;;;;;;22.01;99.36;64275.03;5084798;28;20234;-76
2023/08/03 04:27:59;;;;;;;9.90;9.10;;;;;;;22.05;95.89;64284.41;5083310;28;20223;-76
2023/08/03 04:30:26;;;;;;;9.75;8.85;;;;;;;22.10;98.06;64290.16;5079946;28;20203;-77
2023/08/03 04:32:54;;;;;;;10.70;9.63;;;;;;;22.18;98.03;64301.09;5082881;28;20254;-75
2023/08/03 04:35:21;;;;;;;10.27;9.38;;;;;;;22.20;98.40;64300.06;5084868;28;20204;-75
2023/08/03 04:37:49;;;;;;;11.52;9.77;;;;;;;22.22;96.41;64302.69;5084964;28;20291;-75
2023/08/03 04:40:16;;;;;;;10.85;9.75;;;;;;;22.29;95.76;64312.09;5081638;28;20204;-75
2023/08/03 04:42:43;;;;;;;11.90;10.02;;;;;;;22.37;94.69;64313.19;5077045;28;20227;-75
2023/08/03 04:45:11;;;;;;;9.98;9.18;;;;;;;22.33;95.01;64311.06;5075429;28;20235;-76
2023/08/03 04:47:38;;;;;;;10.18;9.30;;;;;;;22.41;97.20;64319.97;5082323;28;20200;-76
2023/08/03 04:50:07;;;;;;;11.73;9.95;;;;;;;22.61;96.07;64335.16;5082247;28;20204;-76
2023/08/03 04:52:35;;;;;;;10.73;9.50;;;;;;;22.78;96.22;64355.53;5084106;28;20365;-76
2023/08/03 04:55:02;;;;;;;11.75;9.95;;;;;;;22.89;93.19;64372.25;5080626;28;20205;-74
2023/08/03 04:57:28;;;;;;;12.65;9.93;;;;;;;22.79;92.89;64359.72;5080815;28;20196;-76
2023/08/03 04:59:56;;;;;;;11.45;10.20;;;;;;;22.85;93.05;64368.03;5079825;28;20534;-75
2023/08/03 05:02:23;;;;;;;12.45;11.25;;;;;;;22.99;94.63;64379.59;5083425;28;20223;-75
2023/08/03 05:04:50;;;;;;;10.85;9.82;;;;;;;23.08;93.09;64391.56;5082281;28;20393;-76
2023/08/03 05:07:18;;;;;;;13.68;12.27;;;;;;;23.13;91.88;64402.53;5083021;28;20207;-75
2023/08/03 05:09:45;;;;;;;12.00;11.00;;;;;;;23.18;91.30;64397.38;5085628;28;20223;-75
2023/08/03 05:12:12;;;;;;;13.27;10.45;;;;;;;23.21;92.70;64405.19;5086272;28;20197;-75
2023/08/03 05:14:39;;;;;;;12.25;10.88;;;;;;;23.15;90.84;64399.44;5086330;28;20429;-76
2023/08/03 05:17:06;;;;;;;14.65;10.57;;;;;;;23.15;90.77;64396.31;5086761;28;20238;-75
2023/08/03 05:19:33;;;;;;;10.82;9.93;;;;;;;23.20;91.59;64404.13;5084497;28;20220;-76
2023/08/03 05:22:00;;;;;;;15.00;10.93;;;;;;;23.23;90.77;64405.19;5082905;28;20215;-77
2023/08/03 05:24:29;;;;;;;13.18;11.52;;;;;;;23.32;88.13;64411.50;5086187;28;20212;-75
2023/08/03 05:26:55;;;;;;;13.00;10.55;;;;;;;23.46;86.61;64429.28;5078588;28;20224;-76
2023/08/03 05:29:22;;;;;;;12.10;10.82;;;;;;;23.66;84.49;64449.69;5086416;28;20406;-75
2023/08/03 05:31:50;;;;;;;12.73;11.40;;;;;;;23.73;83.79;64457.00;5083473;28;20196;-77
2023/08/03 05:34:17;;;;;;;12.68;11.40;;;;;;;23.83;84.13;64472.69;5085141;28;20301;-75
2023/08/03 05:36:44;;;;;;;10.73;9.77;;;;;;;24.02;83.36;64486.84;5084725;28;20220;-76
2023/08/03 05:39:12;;;;;;;12.05;10.82;;;;;;;23.89;83.98;64476.88;5088716;28;20227;-77
2023/08/03 05:41:40;;;;;;;13.43;10.93;;;;;;;24.08;82.95;64495.72;5081624;28;20204;-76
2023/08/03 05:44:11;;;;;;;12.15;9.80;;;;;;;24.27;82.37;64518.75;5083350;28;20224;-77
2023/08/03 05:46:38;;;;;;;10.63;9.57;;;;;;;24.36;81.52;64525.56;5085540;28;20291;-75
2023/08/03 05:49:05;;;;;;;15.02;10.27;;;;;;;24.46;81.38;64535.50;5085068;28;20250;-76
2023/08/03 05:51:32;;;;;;;12.85;10.30;;;;;;;24.42;82.42;64531.34;5087257;28;20238;-76
2023/08/03 05:53:59;;;;;;;14.40;10.05;;;;;;;24.52;80.22;64539.72;5086533;28;20246;-76
2023/08/03 05:56:26;;;;;;;18.23;9.98;;;;;;;24.71;78.64;64559.63;5088596;28;20246;-76
2023/08/03 05:58:55;;;;;;;14.23;10.90;;;;;;;24.72;78.75;64565.38;5081328;28;20266;-75
2023/08/03 06:01:23;;;;;;;15.20;11.35;;;;;;;24.67;80.01;64555.44;5086979;28;20497;-76
2023/08/03 06:03:52;;;;;;;15.85;12.07;;;;;;;24.75;78.80;64566.44;5085063;28;20208;-76
2023/08/03 06:06:20;;;;;;;14.95;11.63;;;;;;;24.76;77.01;64567.47;5086745;28;20408;-76
2023/08/03 06:08:48;;;;;;;15.57;11.38;;;;;;;24.90;75.81;64584.22;5081511;28;20216;-76
2023/08/03 06:11:17;;;;;;;18.77;12.35;;;;;;;24.90;75.62;64579.53;5090031;28;20242;-77
2023/08/03 06:13:45;;;;;;;17.02;11.32;;;;;;;25.06;75.30;64601.50;5084812;28;20270;-75
2023/08/03 06:16:16;;;;;;;12.27;11.05;;;;;;;25.22;73.47;64615.13;5084274;28;20215;-76
2023/08/03 06:18:48;;;;;;;17.85;12.23;;;;;;;25.06;72.98;64598.38;5080663;28;20254;-76
2023/08/03 06:21:16;;;;;;;18.83;11.90;;;;;;;25.03;74.33;64595.22;5084634;28;20323;-76
2023/08/03 06:23:46;;;;;;;19.02;10.07;;;;;;;25.16;73.95;64605.72;5086147;28;20285;-76
2023/08/03 06:26:16;;;;;;;18.90;11.70;;;;;;;25.26;72.79;64616.72;5085112;28;20228;-76
2023/08/03 06:28:44;;;;;;;12.27;11.00;;;;;;;25.39;72.08;64630.34;5085955;28;20254;-76
2023/08/03 06:31:17;;;;;;;20.75;11.73;;;;;;;25.45;71.66;64639.25;5084184;28;20196;-75
2023/08/03 06:33:45;;;;;;;13.98;10.02;;;;;;;25.59;70.60;64656.53;5086025;28;20334;-76
2023/08/03 06:36:13;;;;;;;14.65;11.32;;;;;;;25.55;70.06;64651.81;5083966;28;20496;-77
2023/08/03 06:38:41;;;;;;;17.90;10.55;;;;;;;25.64;70.58;64656.56;5084335;28;20216;-77
2023/08/03 06:41:09;;;;;;;15.88;11.43;;;;;;;25.62;70.35;64657.06;5086456;28;20219;-75
2023/08/03 06:43:36;;;;;;;15.48;10.73;;;;;;;25.73;68.43;64665.47;5083682;28;20235;-75
2023/08/03 06:46:03;;;;;;;11.75;10.55;;;;;;;25.76;68.43;64676.97;5085748;28;20559;-76
2023/08/03 06:48:32;;;;;;;11.32;10.20;;;;;;;25.79;68.16;64674.88;5081319;28;20220;-75
2023/08/03 06:51:00;;;;;;;16.40;11.30;;;;;;;25.78;67.08;64673.81;5085593;28;20196;-76
2023/08/03 06:53:27;;;;;;;17.90;10.65;;;;;;;25.97;67.35;64690.63;5080234;28;20208;-75
2023/08/03 06:55:54;;;;;;;13.30;10.73;;;;;;;26.10;67.90;64706.88;5085906;28;20212;-75
2023/08/03 06:58:21;;;;;;;14.35;10.32;;;;;;;26.13;66.51;64710.00;5081823;28;20224;-76
2023/08/03 07:00:49;;;;;;;16.35;11.18;;;;;;;26.29;65.82;64729.41;5083795;28;20204;-76
2023/08/03 07:03:16;;;;;;;11.93;10.27;;;;;;;26.52;66.06;64750.38;5085058;28;20246;-77
2023/08/03 07:05:45;;;;;;;11.60;10.35;;;;;;;26.68;64.77;64767.19;5076423;28;20231;-77
2023/08/03 07:08:12;;;;;;;14.57;10.82;;;;;;;26.80;63.18;64777.16;5065166;28;20221;-76
2023/08/03 07:10:39;;;;;;;12.82;9.75;;;;;;;27.07;61.63;64806.00;5073682;28;20421;-76
2023/08/03 07:13:07;;;;;;;16.13;10.27;;;;;;;27.33;60.97;64838.00;5085471;28;20255;-75
2023/08/03 07:15:34;;;;;;;16.48;10.77;;;;;;;27.35;60.85;64834.34;5084216;28;20200;-76
2023/08/03 07:18:03;;;;;;;11.32;9.90;;;;;;;27.27;61.08;64823.84;5085771;28;20235;-76
2023/08/03 07:20:29;;;;;;;14.23;10.57;;;;;;;27.13;60.61;64814.91;5085628;28;20200;-76
2023/08/03 07:22:58;;;;;;;12.77;9.70;;;;;;;27.36;58.99;64835.38;5084565;28;20216;-76
2023/08/03 07:25:26;;;;;;;11.73;10.63;;;;;;;27.57;57.98;64855.34;5079480;28;20196;-76
2023/08/03 07:27:54;;;;;;;17.05;10.15;;;;;;;27.56;58.68;64856.91;5086425;28;20231;-77
2023/08/03 07:30:21;;;;;;;12.50;10.05;;;;;;;27.58;57.94;64858.50;5082204;28;20211;-77
2023/08/03 07:32:48;;;;;;;12.68;9.63;;;;;;;27.56;57.70;64862.13;5078309;28;20239;-78
2023/08/03 07:35:15;;;;;;;10.80;9.68;;;;;;;27.52;58.11;64857.94;5067117;28;20412;-76
2023/08/03 07:37:42;;;;;;;17.95;10.07;;;;;;;27.70;57.23;64873.69;5080104;28;20196;-76
2023/08/03 07:40:11;;;;;;;10.77;9.60;;;;;;;27.86;56.49;64888.38;5083200;28;20199;-76
2023/08/03 07:42:38;;;;;;;12.98;10.20;;;;;;;27.90;56.01;64889.97;5085008;28;20249;-76
2023/08/03 07:45:08;;;;;;;12.32;10.30;;;;;;;27.90;56.24;64894.69;5075168;28;20383;-76
2023/08/03 07:47:35;;;;;;;12.02;10.82;;;;;;;28.06;56.32;64909.41;5082211;28;20232;-76
2023/08/03 07:50:03;;;;;;;14.65;10.75;;;;;;;28.06;56.71;64911.50;5086259;28;20203;-76
2023/08/03 07:52:32;;;;;;;11.13;10.00;;;;;;;28.13;56.27;64921.97;5080261;28;20196;-77
2023/08/03 07:54:59;;;;;;;13.68;10.55;;;;;;;28.29;56.77;64930.41;5083472;28;20252;-75
2023/08/03 07:57:27;;;;;;;11.75;10.00;;;;;;;28.22;56.79;64928.28;5076857;28;20243;-76
2023/08/03 07:59:54;;;;;;;10.65;9.80;;;;;;;28.24;56.57;64930.38;5085944;28;20200;-76
2023/08/03 08:02:23;;;;;;;14.65;10.98;;;;;;;28.34;56.36;64940.88;5083418;28;20390;-76
2023/08/03 08:04:51;;;;;;;11.57;10.50;;;;;;;28.32;55.38;64933.53;5085056;28;20216;-76
2023/08/03 08:07:18;;;;;;;13.02;11.38;;;;;;;28.45;54.18;64952.44;5083922;28;20235;-76
2023/08/03 08:09:45;;;;;;;15.18;11.27;;;;;;;28.34;54.49;64941.41;5084579;28;20275;-76
2023/08/03 08:12:12;;;;;;;11.55;10.45;;;;;;;28.44;54.89;64951.38;5086049;28;20492;-76
2023/08/03 08:14:41;;;;;;;11.57;9.55;;;;;;;28.66;54.46;64974.00;5085771;28;20207;-77
2023/08/03 08:17:08;;;;;;;11.55;10.40;;;;;;;28.86;54.36;64995.00;5087928;28;20267;-75
2023/08/03 08:19:35;;;;;;;13.73;10.32;;;;;;;28.61;53.55;64971.38;5091062;28;20259;-77
2023/08/03 08:22:02;;;;;;;12.45;11.25;;;;;;;28.39;53.48;64948.75;5078903;28;20227;-77
2023/08/03 08:24:29;;;;;;;12.10;10.75;;;;;;;28.46;53.64;64953.50;5086322;28;20216;-75
2023/08/03 08:26:56;;;;;;;11.60;10.50;;;;;;;28.51;54.45;64955.63;5084801;28;20238;-75
2023/08/03 08:29:24;;;;;;;10.63;9.63;;;;;;;28.75;54.74;64991.31;5079712;28;20246;-76
2023/08/03 08:31:52;;;;;;;12.93;10.75;;;;;;;28.90;53.85;64997.09;5085940;28;20214;-75
2023/08/03 08:34:19;;;;;;;10.00;9.05;;;;;;;29.10;52.93;65023.38;5076858;28;20256;-75
2023/08/03 08:36:46;;;;;;;10.93;9.93;;;;;;;29.40;52.23;65049.13;5085853;28;20472;-77
2023/08/03 08:39:12;;;;;;;10.48;9.65;;;;;;;29.62;52.41;65074.88;5086101;28;20212;-78
2023/08/03 08:41:41;;;;;;;10.60;9.48;;;;;;;29.85;51.34;65096.44;5082005;28;20543;-76
2023/08/03 08:44:13;;;;;;;12.32;11.18;;;;;;;29.76;51.01;65089.59;5082958;28;20224;-75
2023/08/03 08:46:42;;;;;;;15.32;10.57;;;;;;;29.90;50.27;65101.69;5084080;28;20223;-77
2023/08/03 08:49:11;;;;;;;11.95;10.75;;;;;;;29.82;50.14;65092.75;5088191;28;20216;-78
2023/08/03 08:51:41;;;;;;;10.93;9.85;;;;;;;29.83;50.60;65093.81;5083486;28;20200;-77
2023/08/03 08:54:08;;;;;;;15.27;11.15;;;;;;;29.86;50.26;65096.94;5088372;28;20220;-76
2023/08/03 08:56:35;;;;;;;11.65;10.68;;;;;;;29.59;50.53;65071.19;5087211;28;20219;-76
2023/08/03 08:59:03;;;;;;;11.52;10.30;;;;;;;29.35;50.76;65043.88;5077745;28;20533;-76
2023/08/03 09:01:49;;;;;;;18.85;11.30;;;;;;;29.36;50.74;65050.69;5085465;28;20220;-76
2023/08/03 09:04:27;;;;;;;12.70;11.43;;;;;;;29.46;50.75;65058.03;5086542;28;20253;-75
2023/08/03 09:06:55;;;;;;;11.07;10.02;;;;;;;29.57;50.84;65072.25;5086886;28;20228;-76
2023/08/03 09:09:27;;;;;;;11.73;10.63;;;;;;;29.50;50.96;65059.63;5087883;28;20607;-77
2023/08/03 09:11:55;;;;;;;11.60;10.40;;;;;;;29.64;51.05;65074.34;5090390;28;20204;-76
2023/08/03 09:14:22;;;;;;;11.10;10.00;;;;;;;29.86;50.30;65096.94;5086314;28;20409;-76
2023/08/03 09:16:49;;;;;;;18.02;11.07;;;;;;;29.92;50.39;65106.44;5087251;28;20192;-76
2023/08/03 09:19:36;;;;;;;11.90;10.70;;;;;;;30.06;49.68;65120.63;5089139;28;20212;-77
2023/08/03 09:22:03;;;;;;;12.95;11.35;;;;;;;30.21;49.48;65142.16;5086472;28;20203;-77
2023/08/03 09:24:30;;;;;;;11.55;10.63;;;;;;;30.40;49.96;65154.28;5084697;28;20212;-76
2023/08/03 09:26:57;;;;;;;11.82;10.73;;;;;;;30.58;48.96;65175.31;5088504;28;20224;-77
2023/08/03 09:29:30;;;;;;;11.32;10.30;;;;;;;30.33;49.30;65146.38;5087613;28;20239;-76
2023/08/03 09:32:02;;;;;;;11.65;10.50;;;;;;;30.38;49.07;65151.66;5084353;28;20196;-77
2023/08/03 09:34:42;;;;;;;12.43;11.23;;;;;;;30.46;49.58;65160.59;5077049;28;20216;-76
2023/08/03 09:37:10;;;;;;;14.45;10.15;;;;;;;30.38;49.01;65157.44;5087142;28;20477;-77
2023/08/03 09:39:38;;;;;;;12.23;10.77;;;;;;;30.57;48.33;65176.88;5085707;28;20216;-77
2023/08/03 09:42:07;;;;;;;14.60;10.55;;;;;;;30.77;47.87;65192.13;5084376;28;20207;-76
2023/08/03 09:44:34;;;;;;;10.90;9.90;;;;;;;30.81;47.79;65204.25;5085735;28;20216;-76
2023/08/03 09:47:02;;;;;;;13.05;10.20;;;;;;;31.01;48.03;65225.31;5086384;28;20253;-77
2023/08/03 09:49:29;;;;;;;11.95;10.75;;;;;;;31.22;47.80;65247.91;5085258;28;20220;-75
2023/08/03 09:52:00;;;;;;;11.55;10.40;;;;;;;31.23;47.63;65237.91;5085163;28;20196;-77
2023/08/03 09:54:35;;;;;;;12.55;9.90;;;;;;;31.14;46.68;65234.22;5086363;28;20250;-76
2023/08/03 09:57:11;;;;;;;11.35;10.35;;;;;;;30.85;47.61;65203.72;5086210;28;20183;-76
2023/08/03 09:59:40;;;;;;;11.45;10.38;;;;;;;31.02;47.43;65221.63;5082097;28;20451;-77
2023/08/03 10:02:10;;;;;;;10.90;9.98;;;;;;;31.00;47.99;65218.97;5084482;28;20200;-75
2023/08/03 10:04:43;;;;;;;10.50;9.60;;;;;;;31.12;47.72;65231.59;5086948;28;20208;-76
2023/08/03 10:07:16;;;;;;;11.05;10.10;;;;;;;31.23;46.48;65243.72;5081682;28;20243;-79
2023/08/03 10:09:45;;;;;;;10.25;9.45;;;;;;;31.17;45.53;65236.84;5082386;28;20220;-77
2023/08/03 10:12:19;;;;;;;13.85;10.30;;;;;;;31.27;46.31;65247.41;5072449;28;20200;-76
2023/08/03 10:14:51;;;;;;;12.00;10.63;;;;;;;31.44;46.88;65270.56;5086997;28;20371;-75
2023/08/03 10:17:19;;;;;;;11.02;9.95;;;;;;;31.77;45.46;65300.03;5085175;28;20255;-76
2023/08/03 10:19:47;;;;;;;10.57;9.77;;;;;;;31.79;44.47;65304.25;5084402;28;20215;-75
2023/08/03 10:22:16;;;;;;;10.57;9.55;;;;;;;31.95;43.99;65319.00;5087353;28;20234;-76
2023/08/03 10:25:16;;;;;;;10.43;9.57;;;;;;;32.14;44.37;65339.00;5083315;28;20231;-75
2023/08/03 10:27:42;;;;;;;10.75;9.63;;;;;;;32.12;44.22;65336.88;5077330;28;20230;-77
2023/08/03 10:30:10;;;;;;;10.25;9.35;;;;;;;32.13;44.63;65337.94;5084509;28;20200;-77
2023/08/03 10:32:38;;;;;;;10.10;9.40;;;;;;;32.15;44.07;65345.31;5088014;28;20524;-77
2023/08/03 10:35:39;;;;;;;9.95;9.07;;;;;;;32.12;43.39;65339.00;5083733;28;20216;-77
2023/08/03 10:38:19;;;;;;;10.25;9.40;;;;;;;31.94;43.90;65320.56;5089161;28;20219;-77
2023/08/03 10:40:45;;;;;;;10.23;9.32;;;;;;;32.16;44.90;65343.75;5091764;28;20211;-78
2023/08/03 10:43:12;;;;;;;10.20;9.25;;;;;;;32.27;42.79;65350.03;5082375;28;20216;-76
2023/08/03 10:45:40;;;;;;;10.68;9.57;;;;;;;32.30;42.88;65353.19;5082651;28;20485;-76
2023/08/03 10:48:29;;;;;;;10.57;9.73;;;;;;;32.25;42.60;65350.56;5085776;28;20232;-76
2023/08/03 10:51:02;;;;;;;10.10;9.20;;;;;;;32.22;42.93;65352.16;5087665;28;20223;-77
2023/08/03 10:53:31;;;;;;;9.90;9.10;;;;;;;32.29;42.40;65354.78;5078342;28;20222;-76
2023/08/03 10:56:10;;;;;;;10.95;9.32;;;;;;;32.20;43.62;65350.06;5086203;28;20203;-76
2023/08/03 10:58:47;;;;;;;10.32;9.30;;;;;;;32.20;42.68;65347.41;5086057;28;20240;-76
2023/08/03 11:01:16;;;;;;;10.65;9.55;;;;;;;32.38;42.37;65366.38;5079619;28;20250;-76
2023/08/03 11:03:43;;;;;;;10.18;8.48;;;;;;;32.32;42.08;65354.78;5086478;28;20219;-74
2023/08/03 11:06:10;;;;;;;10.35;9.40;;;;;;;31.96;42.57;65316.88;5079347;28;20196;-76
2023/08/03 11:08:39;;;;;;;10.10;9.27;;;;;;;31.99;42.37;65327.94;5083372;28;20228;-75
2023/08/03 11:11:12;;;;;;;10.88;9.38;;;;;;;32.24;43.39;65354.78;5082430;28;20200;-74
2023/08/03 11:13:38;;;;;;;10.18;9.25;;;;;;;32.58;44.39;65385.34;5084856;28;20601;-75
2023/08/03 11:16:06;;;;;;;10.07;9.05;;;;;;;32.77;42.47;65410.63;5084733;28;20196;-76
2023/08/03 11:18:35;;;;;;;10.90;9.30;;;;;;;32.98;41.04;65431.72;5078731;28;20270;-74
2023/08/03 11:21:02;;;;;;;9.60;8.70;;;;;;;32.87;41.24;65418.00;5080024;28;20246;-74
2023/08/03 11:23:32;;;;;;;9.85;9.05;;;;;;;32.91;41.38;65419.56;5086187;28;20212;-74
2023/08/03 11:26:06;;;;;;;10.95;9.13;;;;;;;33.30;42.69;65463.31;5085720;28;20219;-75
2023/08/03 11:28:40;;;;;;;9.48;8.55;;;;;;;33.69;41.35;65503.91;5078083;28;20566;-77